sensor_id;sensor_type;location;lat;lon;timestamp;temperature;humidity
14471;DHT22;7321;50.802;4.336;2022-09-02T00:01:01;20.30;99.90
14471;DHT22;7321;50.802;4.336;2022-09-02T00:03:29;20.20;99.90
14471;DHT22;7321;50.802;4.336;2022-09-02T00:05:56;20.20;99.90
14471;DHT22;7321;50.802;4.336;2022-09-02T00:08:22;20.20;99.90
14471;DHT22;7321;50.802;4.336;2022-09-02T00:10:48;20.30;99.90
14471;DHT22;7321;50.802;4.336;2022-09-02T00:13:15;20.30;99.90
14471;DHT22;7321;50.802;4.336;2022-09-02T00:15:42;20.20;99.90
14471;DHT22;7321;50.802;4.336;2022-09-02T00:18:09;20.20;99.90
14471;DHT22;7321;50.802;4.336;2022-09-02T00:20:38;20.20;99.90
14471;DHT22;7321;50.802;4.336;2022-09-02T00:23:04;20.30;99.90
14471;DHT22;7321;50.802;4.336;2022-09-02T00:25:30;20.30;99.90
14471;DHT22;7321;50.802;4.336;2022-09-02T00:27:56;20.40;99.90
14471;DHT22;7321;50.802;4.336;2022-09-02T00:30:22;20.40;99.90
14471;DHT22;7321;50.802;4.336;2022-09-02T00:32:48;20.40;99.90
14471;DHT22;7321;50.802;4.336;2022-09-02T00:35:14;20.30;99.90
14471;DHT22;7321;50.802;4.336;2022-09-02T00:37:40;20.20;99.90
14471;DHT22;7321;50.802;4.336;2022-09-02T00:40:06;20.20;99.90
14471;DHT22;7321;50.802;4.336;2022-09-02T00:42:33;20.20;99.90
14471;DHT22;7321;50.802;4.336;2022-09-02T00:44:59;20.20;99.90
14471;DHT22;7321;50.802;4.336;2022-09-02T00:47:27;20.20;99.90
14471;DHT22;7321;50.802;4.336;2022-09-02T00:49:54;20.20;99.90
14471;DHT22;7321;50.802;4.336;2022-09-02T00:52:32;20.20;99.90
14471;DHT22;7321;50.802;4.336;2022-09-02T00:55:04;20.30;99.90
14471;DHT22;7321;50.802;4.336;2022-09-02T00:57:39;20.20;99.90
14471;DHT22;7321;50.802;4.336;2022-09-02T01:02:39;20.20;99.90
14471;DHT22;7321;50.802;4.336;2022-09-02T01:05:08;20.00;99.90
14471;DHT22;7321;50.802;4.336;2022-09-02T01:07:36;20.00;99.90
14471;DHT22;7321;50.802;4.336;2022-09-02T01:10:05;20.00;99.90
14471;DHT22;7321;50.802;4.336;2022-09-02T01:12:33;20.00;99.90
14471;DHT22;7321;50.802;4.336;2022-09-02T01:15:00;20.00;99.90
14471;DHT22;7321;50.802;4.336;2022-09-02T01:17:28;20.00;99.90
14471;DHT22;7321;50.802;4.336;2022-09-02T01:19:57;19.90;99.90
14471;DHT22;7321;50.802;4.336;2022-09-02T01:22:27;20.00;99.90
14471;DHT22;7321;50.802;4.336;2022-09-02T01:24:55;20.00;99.90
14471;DHT22;7321;50.802;4.336;2022-09-02T01:27:22;20.20;99.90
14471;DHT22;7321;50.802;4.336;2022-09-02T01:29:53;20.20;99.90
14471;DHT22;7321;50.802;4.336;2022-09-02T01:32:20;20.10;99.90
14471;DHT22;7321;50.802;4.336;2022-09-02T01:34:46;20.10;99.90
14471;DHT22;7321;50.802;4.336;2022-09-02T01:37:12;20.00;99.90
14471;DHT22;7321;50.802;4.336;2022-09-02T01:39:39;20.00;99.90
14471;DHT22;7321;50.802;4.336;2022-09-02T01:42:05;19.90;99.90
14471;DHT22;7321;50.802;4.336;2022-09-02T01:44:32;19.90;99.90
14471;DHT22;7321;50.802;4.336;2022-09-02T01:46:59;20.00;99.90
14471;DHT22;7321;50.802;4.336;2022-09-02T01:49:25;20.00;99.90
14471;DHT22;7321;50.802;4.336;2022-09-02T01:51:54;20.00;99.90
14471;DHT22;7321;50.802;4.336;2022-09-02T01:54:20;20.00;99.90
14471;DHT22;7321;50.802;4.336;2022-09-02T01:56:45;19.90;99.90
14471;DHT22;7321;50.802;4.336;2022-09-02T01:59:12;19.90;99.90
14471;DHT22;7321;50.802;4.336;2022-09-02T02:01:42;19.80;99.90
14471;DHT22;7321;50.802;4.336;2022-09-02T02:04:09;19.80;99.90
14471;DHT22;7321;50.802;4.336;2022-09-02T02:06:43;19.90;99.90
14471;DHT22;7321;50.802;4.336;2022-09-02T02:09:10;19.80;99.90
14471;DHT22;7321;50.802;4.336;2022-09-02T02:11:37;19.80;99.90
14471;DHT22;7321;50.802;4.336;2022-09-02T02:14:04;19.70;99.90
14471;DHT22;7321;50.802;4.336;2022-09-02T02:16:30;19.70;99.90
14471;DHT22;7321;50.802;4.336;2022-09-02T02:18:56;19.70;99.90
14471;DHT22;7321;50.802;4.336;2022-09-02T02:21:23;19.80;99.90
14471;DHT22;7321;50.802;4.336;2022-09-02T02:23:48;19.90;99.90
14471;DHT22;7321;50.802;4.336;2022-09-02T02:26:14;19.90;99.90
14471;DHT22;7321;50.802;4.336;2022-09-02T02:28:40;19.90;99.90
14471;DHT22;7321;50.802;4.336;2022-09-02T02:31:06;19.90;99.90
14471;DHT22;7321;50.802;4.336;2022-09-02T02:33:32;19.90;99.90
14471;DHT22;7321;50.802;4.336;2022-09-02T02:35:58;19.90;99.90
14471;DHT22;7321;50.802;4.336;2022-09-02T02:38:24;19.80;99.90
14471;DHT22;7321;50.802;4.336;2022-09-02T02:40:54;19.80;99.90
14471;DHT22;7321;50.802;4.336;2022-09-02T02:43:23;19.80;99.90
14471;DHT22;7321;50.802;4.336;2022-09-02T02:45:49;19.90;99.90
14471;DHT22;7321;50.802;4.336;2022-09-02T02:48:16;20.00;99.90
14471;DHT22;7321;50.802;4.336;2022-09-02T02:50:42;20.00;99.90
14471;DHT22;7321;50.802;4.336;2022-09-02T02:53:08;20.00;99.90
14471;DHT22;7321;50.802;4.336;2022-09-02T02:55:34;20.00;99.90
14471;DHT22;7321;50.802;4.336;2022-09-02T02:58:00;19.90;99.90
14471;DHT22;7321;50.802;4.336;2022-09-02T03:00:30;19.90;99.90
14471;DHT22;7321;50.802;4.336;2022-09-02T03:02:58;19.80;99.90
14471;DHT22;7321;50.802;4.336;2022-09-02T03:05:25;19.80;99.90
14471;DHT22;7321;50.802;4.336;2022-09-02T03:07:51;19.70;99.90
14471;DHT22;7321;50.802;4.336;2022-09-02T03:10:17;19.60;99.90
14471;DHT22;7321;50.802;4.336;2022-09-02T03:12:43;19.70;99.90
14471;DHT22;7321;50.802;4.336;2022-09-02T03:15:14;19.70;99.90
14471;DHT22;7321;50.802;4.336;2022-09-02T03:17:45;19.70;99.90
14471;DHT22;7321;50.802;4.336;2022-09-02T03:20:12;19.70;99.90
14471;DHT22;7321;50.802;4.336;2022-09-02T03:22:41;19.70;99.90
14471;DHT22;7321;50.802;4.336;2022-09-02T03:25:09;19.80;99.90
14471;DHT22;7321;50.802;4.336;2022-09-02T03:27:37;19.80;99.90
14471;DHT22;7321;50.802;4.336;2022-09-02T03:30:08;19.80;99.90
14471;DHT22;7321;50.802;4.336;2022-09-02T03:32:36;19.80;99.90
14471;DHT22;7321;50.802;4.336;2022-09-02T03:35:08;19.80;99.90
14471;DHT22;7321;50.802;4.336;2022-09-02T03:37:34;19.70;99.90
14471;DHT22;7321;50.802;4.336;2022-09-02T03:40:05;19.70;99.90
14471;DHT22;7321;50.802;4.336;2022-09-02T03:42:31;19.80;99.90
14471;DHT22;7321;50.802;4.336;2022-09-02T03:44:57;19.70;99.90
14471;DHT22;7321;50.802;4.336;2022-09-02T03:47:24;19.80;99.90
14471;DHT22;7321;50.802;4.336;2022-09-02T03:49:49;19.90;99.90
14471;DHT22;7321;50.802;4.336;2022-09-02T03:52:16;19.90;99.90
14471;DHT22;7321;50.802;4.336;2022-09-02T03:54:41;19.90;99.90
14471;DHT22;7321;50.802;4.336;2022-09-02T03:57:07;19.90;99.90
14471;DHT22;7321;50.802;4.336;2022-09-02T03:59:33;19.80;99.90
14471;DHT22;7321;50.802;4.336;2022-09-02T04:02:00;19.80;99.90
14471;DHT22;7321;50.802;4.336;2022-09-02T04:04:28;19.70;99.90
14471;DHT22;7321;50.802;4.336;2022-09-02T04:06:54;19.70;99.90
14471;DHT22;7321;50.802;4.336;2022-09-02T04:09:20;19.80;99.90
14471;DHT22;7321;50.802;4.336;2022-09-02T04:11:46;19.90;99.90
14471;DHT22;7321;50.802;4.336;2022-09-02T04:14:13;19.80;99.90
14471;DHT22;7321;50.802;4.336;2022-09-02T04:16:39;19.70;99.90
14471;DHT22;7321;50.802;4.336;2022-09-02T04:19:05;19.80;99.90
14471;DHT22;7321;50.802;4.336;2022-09-02T04:21:35;19.80;99.90
14471;DHT22;7321;50.802;4.336;2022-09-02T04:24:01;19.70;99.90
14471;DHT22;7321;50.802;4.336;2022-09-02T04:26:27;19.70;99.90
14471;DHT22;7321;50.802;4.336;2022-09-02T04:28:53;19.80;99.90
14471;DHT22;7321;50.802;4.336;2022-09-02T04:31:20;19.70;99.90
14471;DHT22;7321;50.802;4.336;2022-09-02T04:33:46;19.80;99.90
14471;DHT22;7321;50.802;4.336;2022-09-02T04:36:15;19.70;99.90
14471;DHT22;7321;50.802;4.336;2022-09-02T04:38:41;19.60;99.90
14471;DHT22;7321;50.802;4.336;2022-09-02T04:41:10;19.50;99.90
14471;DHT22;7321;50.802;4.336;2022-09-02T04:43:36;19.50;99.90
14471;DHT22;7321;50.802;4.336;2022-09-02T04:46:07;19.50;99.90
14471;DHT22;7321;50.802;4.336;2022-09-02T04:48:34;19.60;99.90
14471;DHT22;7321;50.802;4.336;2022-09-02T04:51:13;19.60;99.90
14471;DHT22;7321;50.802;4.336;2022-09-02T04:53:39;19.60;99.90
14471;DHT22;7321;50.802;4.336;2022-09-02T04:56:07;19.40;99.90
14471;DHT22;7321;50.802;4.336;2022-09-02T04:58:34;19.50;99.90
14471;DHT22;7321;50.802;4.336;2022-09-02T05:01:09;19.50;99.90
14471;DHT22;7321;50.802;4.336;2022-09-02T05:03:38;19.40;99.90
14471;DHT22;7321;50.802;4.336;2022-09-02T05:06:07;19.30;99.90
14471;DHT22;7321;50.802;4.336;2022-09-02T05:08:34;19.40;99.90
14471;DHT22;7321;50.802;4.336;2022-09-02T05:11:06;19.40;99.90
14471;DHT22;7321;50.802;4.336;2022-09-02T05:13:32;19.60;99.90
14471;DHT22;7321;50.802;4.336;2022-09-02T05:15:58;19.60;99.90
14471;DHT22;7321;50.802;4.336;2022-09-02T05:18:24;19.70;99.90
14471;DHT22;7321;50.802;4.336;2022-09-02T05:20:50;19.70;99.90
14471;DHT22;7321;50.802;4.336;2022-09-02T05:23:16;19.70;99.90
14471;DHT22;7321;50.802;4.336;2022-09-02T05:25:42;19.80;99.90
14471;DHT22;7321;50.802;4.336;2022-09-02T05:28:08;19.90;99.90
14471;DHT22;7321;50.802;4.336;2022-09-02T05:30:35;19.90;99.90
14471;DHT22;7321;50.802;4.336;2022-09-02T05:33:04;20.00;99.90
14471;DHT22;7321;50.802;4.336;2022-09-02T05:35:30;20.00;99.90
14471;DHT22;7321;50.802;4.336;2022-09-02T05:37:55;20.00;99.90
14471;DHT22;7321;50.802;4.336;2022-09-02T05:40:21;20.00;99.90
14471;DHT22;7321;50.802;4.336;2022-09-02T05:42:47;20.00;99.90
14471;DHT22;7321;50.802;4.336;2022-09-02T05:45:13;20.00;99.90
14471;DHT22;7321;50.802;4.336;2022-09-02T05:47:39;20.10;99.90
14471;DHT22;7321;50.802;4.336;2022-09-02T05:50:06;20.10;99.90
14471;DHT22;7321;50.802;4.336;2022-09-02T05:52:32;20.20;99.90
14471;DHT22;7321;50.802;4.336;2022-09-02T05:54:58;20.20;99.90
14471;DHT22;7321;50.802;4.336;2022-09-02T05:57:25;20.30;99.90
14471;DHT22;7321;50.802;4.336;2022-09-02T05:59:53;20.40;99.90
14471;DHT22;7321;50.802;4.336;2022-09-02T06:02:22;20.40;99.90
14471;DHT22;7321;50.802;4.336;2022-09-02T06:04:50;20.50;99.90
14471;DHT22;7321;50.802;4.336;2022-09-02T06:07:20;20.60;99.90
14471;DHT22;7321;50.802;4.336;2022-09-02T06:09:46;20.50;99.90
14471;DHT22;7321;50.802;4.336;2022-09-02T06:12:13;20.60;99.90
14471;DHT22;7321;50.802;4.336;2022-09-02T06:14:40;20.60;99.90
14471;DHT22;7321;50.802;4.336;2022-09-02T06:17:06;20.70;99.90
14471;DHT22;7321;50.802;4.336;2022-09-02T06:19:32;20.80;99.90
14471;DHT22;7321;50.802;4.336;2022-09-02T06:22:00;20.90;99.90
14471;DHT22;7321;50.802;4.336;2022-09-02T06:24:27;21.00;99.90
14471;DHT22;7321;50.802;4.336;2022-09-02T06:26:53;21.10;99.90
14471;DHT22;7321;50.802;4.336;2022-09-02T06:29:21;20.90;99.90
14471;DHT22;7321;50.802;4.336;2022-09-02T06:31:48;21.00;99.90
14471;DHT22;7321;50.802;4.336;2022-09-02T06:34:15;21.20;99.90
14471;DHT22;7321;50.802;4.336;2022-09-02T06:36:43;21.20;99.90
14471;DHT22;7321;50.802;4.336;2022-09-02T06:39:13;21.20;99.90
14471;DHT22;7321;50.802;4.336;2022-09-02T06:41:40;21.20;99.90
14471;DHT22;7321;50.802;4.336;2022-09-02T06:44:07;21.40;99.90
14471;DHT22;7321;50.802;4.336;2022-09-02T06:46:37;21.60;99.90
14471;DHT22;7321;50.802;4.336;2022-09-02T06:49:04;21.70;99.90
14471;DHT22;7321;50.802;4.336;2022-09-02T06:51:34;21.80;99.90
14471;DHT22;7321;50.802;4.336;2022-09-02T06:54:00;21.80;99.90
14471;DHT22;7321;50.802;4.336;2022-09-02T06:56:27;21.90;99.90
14471;DHT22;7321;50.802;4.336;2022-09-02T06:58:53;22.00;99.90
14471;DHT22;7321;50.802;4.336;2022-09-02T07:01:21;22.00;99.90
14471;DHT22;7321;50.802;4.336;2022-09-02T07:03:47;22.00;99.90
14471;DHT22;7321;50.802;4.336;2022-09-02T07:06:36;22.20;99.90
14471;DHT22;7321;50.802;4.336;2022-09-02T07:09:04;22.30;99.90
14471;DHT22;7321;50.802;4.336;2022-09-02T07:11:29;22.20;99.90
14471;DHT22;7321;50.802;4.336;2022-09-02T07:13:55;22.30;99.90
14471;DHT22;7321;50.802;4.336;2022-09-02T07:16:24;22.30;99.90
14471;DHT22;7321;50.802;4.336;2022-09-02T07:18:50;22.30;99.90
14471;DHT22;7321;50.802;4.336;2022-09-02T07:21:16;22.30;99.90
14471;DHT22;7321;50.802;4.336;2022-09-02T07:23:41;22.40;99.90
14471;DHT22;7321;50.802;4.336;2022-09-02T07:26:11;22.50;99.90
14471;DHT22;7321;50.802;4.336;2022-09-02T07:28:37;22.40;99.90
14471;DHT22;7321;50.802;4.336;2022-09-02T07:31:07;22.40;99.90
14471;DHT22;7321;50.802;4.336;2022-09-02T07:33:33;22.60;99.90
14471;DHT22;7321;50.802;4.336;2022-09-02T07:36:05;22.60;99.90
14471;DHT22;7321;50.802;4.336;2022-09-02T07:38:31;22.70;99.90
14471;DHT22;7321;50.802;4.336;2022-09-02T07:40:57;22.70;99.90
14471;DHT22;7321;50.802;4.336;2022-09-02T07:43:25;22.80;99.90
14471;DHT22;7321;50.802;4.336;2022-09-02T07:45:52;22.90;99.90
14471;DHT22;7321;50.802;4.336;2022-09-02T07:48:21;22.90;99.90
14471;DHT22;7321;50.802;4.336;2022-09-02T07:50:47;22.90;99.90
14471;DHT22;7321;50.802;4.336;2022-09-02T07:53:13;22.80;99.90
14471;DHT22;7321;50.802;4.336;2022-09-02T07:55:41;22.90;99.90
14471;DHT22;7321;50.802;4.336;2022-09-02T07:58:08;23.10;99.90
14471;DHT22;7321;50.802;4.336;2022-09-02T08:00:35;23.20;99.90
14471;DHT22;7321;50.802;4.336;2022-09-02T08:03:03;23.30;99.90
14471;DHT22;7321;50.802;4.336;2022-09-02T08:05:29;23.40;99.90
14471;DHT22;7321;50.802;4.336;2022-09-02T08:07:56;23.50;99.90
14471;DHT22;7321;50.802;4.336;2022-09-02T08:10:22;23.50;99.90
14471;DHT22;7321;50.802;4.336;2022-09-02T08:12:50;23.70;99.90
14471;DHT22;7321;50.802;4.336;2022-09-02T08:15:16;23.70;99.90
14471;DHT22;7321;50.802;4.336;2022-09-02T08:17:41;23.80;99.90
14471;DHT22;7321;50.802;4.336;2022-09-02T08:20:10;24.00;99.90
14471;DHT22;7321;50.802;4.336;2022-09-02T08:22:39;24.10;99.90
14471;DHT22;7321;50.802;4.336;2022-09-02T08:25:06;24.20;99.90
14471;DHT22;7321;50.802;4.336;2022-09-02T08:27:33;24.30;99.90
14471;DHT22;7321;50.802;4.336;2022-09-02T08:29:59;24.30;99.90
14471;DHT22;7321;50.802;4.336;2022-09-02T08:32:27;24.30;99.90
14471;DHT22;7321;50.802;4.336;2022-09-02T08:34:52;24.60;99.90
14471;DHT22;7321;50.802;4.336;2022-09-02T08:37:18;24.80;99.90
14471;DHT22;7321;50.802;4.336;2022-09-02T08:39:46;25.00;99.90
14471;DHT22;7321;50.802;4.336;2022-09-02T08:42:15;25.00;99.90
14471;DHT22;7321;50.802;4.336;2022-09-02T08:44:44;25.00;99.90
14471;DHT22;7321;50.802;4.336;2022-09-02T08:47:16;24.90;99.90
14471;DHT22;7321;50.802;4.336;2022-09-02T08:49:47;25.10;99.90
14471;DHT22;7321;50.802;4.336;2022-09-02T08:52:21;25.00;99.90
14471;DHT22;7321;50.802;4.336;2022-09-02T08:54:52;24.80;99.90
14471;DHT22;7321;50.802;4.336;2022-09-02T08:57:23;25.00;99.90
14471;DHT22;7321;50.802;4.336;2022-09-02T08:59:55;25.20;99.90
14471;DHT22;7321;50.802;4.336;2022-09-02T09:02:33;25.20;99.90
14471;DHT22;7321;50.802;4.336;2022-09-02T09:05:18;25.20;99.90
14471;DHT22;7321;50.802;4.336;2022-09-02T09:10:41;25.40;99.90
14471;DHT22;7321;50.802;4.336;2022-09-02T09:18:39;25.70;99.90
14471;DHT22;7321;50.802;4.336;2022-09-02T09:21:07;25.70;99.90
14471;DHT22;7321;50.802;4.336;2022-09-02T09:23:37;25.80;99.90
14471;DHT22;7321;50.802;4.336;2022-09-02T09:26:26;25.90;99.90
14471;DHT22;7321;50.802;4.336;2022-09-02T09:28:52;25.90;99.90
14471;DHT22;7321;50.802;4.336;2022-09-02T09:31:23;26.10;99.90
14471;DHT22;7321;50.802;4.336;2022-09-02T09:34:06;26.30;99.90
14471;DHT22;7321;50.802;4.336;2022-09-02T09:36:51;26.30;99.90
14471;DHT22;7321;50.802;4.336;2022-09-02T09:39:29;26.20;99.90
14471;DHT22;7321;50.802;4.336;2022-09-02T09:41:59;26.20;99.90
14471;DHT22;7321;50.802;4.336;2022-09-02T09:44:42;26.40;99.90
14471;DHT22;7321;50.802;4.336;2022-09-02T09:47:22;26.30;99.90
14471;DHT22;7321;50.802;4.336;2022-09-02T09:49:52;26.30;99.90
14471;DHT22;7321;50.802;4.336;2022-09-02T09:52:26;26.40;99.90
14471;DHT22;7321;50.802;4.336;2022-09-02T09:55:14;26.60;99.90
14471;DHT22;7321;50.802;4.336;2022-09-02T09:57:43;26.50;99.90
14471;DHT22;7321;50.802;4.336;2022-09-02T10:00:26;26.60;99.90
14471;DHT22;7321;50.802;4.336;2022-09-02T10:02:54;26.60;99.90
14471;DHT22;7321;50.802;4.336;2022-09-02T10:08:02;26.80;99.90
14471;DHT22;7321;50.802;4.336;2022-09-02T10:10:30;26.80;99.90
14471;DHT22;7321;50.802;4.336;2022-09-02T10:13:15;27.00;99.90
14471;DHT22;7321;50.802;4.336;2022-09-02T10:18:54;27.30;99.90
14471;DHT22;7321;50.802;4.336;2022-09-02T10:21:43;27.50;99.90
14471;DHT22;7321;50.802;4.336;2022-09-02T10:27:07;27.50;99.90
14471;DHT22;7321;50.802;4.336;2022-09-02T10:29:53;27.40;99.90
14471;DHT22;7321;50.802;4.336;2022-09-02T10:40:27;27.30;99.90
14471;DHT22;7321;50.802;4.336;2022-09-02T10:43:07;27.40;99.90
14471;DHT22;7321;50.802;4.336;2022-09-02T10:45:45;27.60;99.90
14471;DHT22;7321;50.802;4.336;2022-09-02T10:50:53;27.90;99.90
14471;DHT22;7321;50.802;4.336;2022-09-02T10:53:50;28.00;99.90
14471;DHT22;7321;50.802;4.336;2022-09-02T10:56:23;28.20;99.90
14471;DHT22;7321;50.802;4.336;2022-09-02T10:59:09;28.20;99.90
14471;DHT22;7321;50.802;4.336;2022-09-02T11:01:55;28.20;99.90
14471;DHT22;7321;50.802;4.336;2022-09-02T11:07:26;28.40;99.90
14471;DHT22;7321;50.802;4.336;2022-09-02T11:10:01;28.50;99.90
14471;DHT22;7321;50.802;4.336;2022-09-02T11:12:38;28.30;99.90
14471;DHT22;7321;50.802;4.336;2022-09-02T11:15:17;28.10;99.90
14471;DHT22;7321;50.802;4.336;2022-09-02T11:20:32;27.80;99.90
14471;DHT22;7321;50.802;4.336;2022-09-02T11:25:46;28.30;99.90
14471;DHT22;7321;50.802;4.336;2022-09-02T11:28:25;28.40;99.90
14471;DHT22;7321;50.802;4.336;2022-09-02T11:31:11;28.40;99.90
14471;DHT22;7321;50.802;4.336;2022-09-02T11:36:05;28.40;99.90
14471;DHT22;7321;50.802;4.336;2022-09-02T11:38:38;28.50;99.90
14471;DHT22;7321;50.802;4.336;2022-09-02T11:41:43;28.60;99.90
14471;DHT22;7321;50.802;4.336;2022-09-02T11:46:47;28.40;99.90
14471;DHT22;7321;50.802;4.336;2022-09-02T11:49:28;28.50;99.90
14471;DHT22;7321;50.802;4.336;2022-09-02T11:55:09;28.80;99.90
14471;DHT22;7321;50.802;4.336;2022-09-02T11:57:40;28.60;99.90
14471;DHT22;7321;50.802;4.336;2022-09-02T12:00:09;28.70;99.90
14471;DHT22;7321;50.802;4.336;2022-09-02T12:07:56;29.20;99.90
14471;DHT22;7321;50.802;4.336;2022-09-02T12:21:29;29.20;99.90
14471;DHT22;7321;50.802;4.336;2022-09-02T12:28:52;28.80;99.90
14471;DHT22;7321;50.802;4.336;2022-09-02T12:31:40;28.50;99.90
14471;DHT22;7321;50.802;4.336;2022-09-02T12:36:52;28.80;99.90
14471;DHT22;7321;50.802;4.336;2022-09-02T12:45:05;29.10;99.90
14471;DHT22;7321;50.802;4.336;2022-09-02T12:56:05;29.20;98.20
14471;DHT22;7321;50.802;4.336;2022-09-02T12:58:37;29.30;98.00
14471;DHT22;7321;50.802;4.336;2022-09-02T13:04:14;29.50;96.90
14471;DHT22;7321;50.802;4.336;2022-09-02T13:24:05;29.50;95.00
14471;DHT22;7321;50.802;4.336;2022-09-02T13:31:58;29.20;95.00
14471;DHT22;7321;50.802;4.336;2022-09-02T13:34:27;29.40;95.10
14471;DHT22;7321;50.802;4.336;2022-09-02T13:36:53;29.40;94.80
14471;DHT22;7321;50.802;4.336;2022-09-02T13:39:23;29.50;94.30
14471;DHT22;7321;50.802;4.336;2022-09-02T13:41:50;29.50;94.10
14471;DHT22;7321;50.802;4.336;2022-09-02T13:44:21;29.50;93.50
14471;DHT22;7321;50.802;4.336;2022-09-02T13:47:17;29.70;93.40
14471;DHT22;7321;50.802;4.336;2022-09-02T13:49:49;29.70;92.30
14471;DHT22;7321;50.802;4.336;2022-09-02T13:52:19;29.50;91.80
14471;DHT22;7321;50.802;4.336;2022-09-02T13:54:48;29.50;92.10
14471;DHT22;7321;50.802;4.336;2022-09-02T13:57:27;29.50;91.40
14471;DHT22;7321;50.802;4.336;2022-09-02T13:59:55;29.50;90.80
14471;DHT22;7321;50.802;4.336;2022-09-02T14:02:28;29.50;90.70
14471;DHT22;7321;50.802;4.336;2022-09-02T14:05:00;29.60;90.70
14471;DHT22;7321;50.802;4.336;2022-09-02T14:07:35;29.60;90.00
14471;DHT22;7321;50.802;4.336;2022-09-02T14:10:05;29.60;90.50
14471;DHT22;7321;50.802;4.336;2022-09-02T14:12:34;29.50;90.10
14471;DHT22;7321;50.802;4.336;2022-09-02T14:15:01;29.60;89.70
14471;DHT22;7321;50.802;4.336;2022-09-02T14:17:27;29.80;90.70
14471;DHT22;7321;50.802;4.336;2022-09-02T14:20:22;29.80;90.10
14471;DHT22;7321;50.802;4.336;2022-09-02T14:22:54;29.90;86.70
14471;DHT22;7321;50.802;4.336;2022-09-02T14:25:22;30.10;88.60
14471;DHT22;7321;50.802;4.336;2022-09-02T14:27:53;30.20;86.70
14471;DHT22;7321;50.802;4.336;2022-09-02T14:33:19;30.30;84.80
14471;DHT22;7321;50.802;4.336;2022-09-02T14:38:27;30.30;82.90
14471;DHT22;7321;50.802;4.336;2022-09-02T14:41:02;30.30;81.40
14471;DHT22;7321;50.802;4.336;2022-09-02T14:43:34;30.30;81.90
14471;DHT22;7321;50.802;4.336;2022-09-02T14:46:06;30.40;82.00
14471;DHT22;7321;50.802;4.336;2022-09-02T14:48:37;30.30;79.60
14471;DHT22;7321;50.802;4.336;2022-09-02T14:51:05;30.40;80.70
14471;DHT22;7321;50.802;4.336;2022-09-02T14:53:33;30.40;79.00
14471;DHT22;7321;50.802;4.336;2022-09-02T14:56:03;30.30;79.10
14471;DHT22;7321;50.802;4.336;2022-09-02T14:58:29;30.10;79.10
14471;DHT22;7321;50.802;4.336;2022-09-02T15:00:57;29.90;78.90
14471;DHT22;7321;50.802;4.336;2022-09-02T15:03:25;29.90;79.30
14471;DHT22;7321;50.802;4.336;2022-09-02T15:05:51;29.80;80.20
14471;DHT22;7321;50.802;4.336;2022-09-02T15:08:18;30.00;80.00
14471;DHT22;7321;50.802;4.336;2022-09-02T15:10:44;30.00;79.40
14471;DHT22;7321;50.802;4.336;2022-09-02T15:13:13;30.10;79.80
14471;DHT22;7321;50.802;4.336;2022-09-02T15:15:43;30.00;78.30
14471;DHT22;7321;50.802;4.336;2022-09-02T15:18:08;30.00;78.30
14471;DHT22;7321;50.802;4.336;2022-09-02T15:20:34;30.10;78.40
14471;DHT22;7321;50.802;4.336;2022-09-02T15:23:00;30.20;77.90
14471;DHT22;7321;50.802;4.336;2022-09-02T15:25:26;30.30;77.00
14471;DHT22;7321;50.802;4.336;2022-09-02T15:27:52;30.30;76.90
14471;DHT22;7321;50.802;4.336;2022-09-02T15:30:17;30.30;76.30
14471;DHT22;7321;50.802;4.336;2022-09-02T15:32:43;30.20;75.70
14471;DHT22;7321;50.802;4.336;2022-09-02T15:35:10;30.10;75.40
14471;DHT22;7321;50.802;4.336;2022-09-02T15:37:36;30.20;75.70
14471;DHT22;7321;50.802;4.336;2022-09-02T15:40:04;30.10;76.20
14471;DHT22;7321;50.802;4.336;2022-09-02T15:42:37;30.20;75.70
14471;DHT22;7321;50.802;4.336;2022-09-02T15:45:05;30.20;75.00
14471;DHT22;7321;50.802;4.336;2022-09-02T15:47:36;30.30;75.20
14471;DHT22;7321;50.802;4.336;2022-09-02T15:50:06;30.00;74.10
14471;DHT22;7321;50.802;4.336;2022-09-02T15:52:35;29.80;74.70
14471;DHT22;7321;50.802;4.336;2022-09-02T15:55:01;29.80;75.20
14471;DHT22;7321;50.802;4.336;2022-09-02T15:57:27;29.60;74.20
14471;DHT22;7321;50.802;4.336;2022-09-02T15:59:54;29.60;75.20
14471;DHT22;7321;50.802;4.336;2022-09-02T16:02:20;29.40;75.00
14471;DHT22;7321;50.802;4.336;2022-09-02T16:04:46;29.40;75.90
14471;DHT22;7321;50.802;4.336;2022-09-02T16:07:12;29.30;76.10
14471;DHT22;7321;50.802;4.336;2022-09-02T16:09:39;29.30;74.80
14471;DHT22;7321;50.802;4.336;2022-09-02T16:12:05;29.50;75.80
14471;DHT22;7321;50.802;4.336;2022-09-02T16:14:31;29.60;74.80
14471;DHT22;7321;50.802;4.336;2022-09-02T16:16:57;29.70;75.30
14471;DHT22;7321;50.802;4.336;2022-09-02T16:19:24;29.70;75.30
14471;DHT22;7321;50.802;4.336;2022-09-02T16:21:51;29.70;74.30
14471;DHT22;7321;50.802;4.336;2022-09-02T16:24:17;29.50;75.10
14471;DHT22;7321;50.802;4.336;2022-09-02T16:26:44;29.10;75.80
14471;DHT22;7321;50.802;4.336;2022-09-02T16:29:12;29.00;76.50
14471;DHT22;7321;50.802;4.336;2022-09-02T16:31:40;29.00;76.20
14471;DHT22;7321;50.802;4.336;2022-09-02T16:34:08;29.00;77.40
14471;DHT22;7321;50.802;4.336;2022-09-02T16:36:45;28.90;76.10
14471;DHT22;7321;50.802;4.336;2022-09-02T16:39:12;29.00;76.50
14471;DHT22;7321;50.802;4.336;2022-09-02T16:41:45;29.00;77.00
14471;DHT22;7321;50.802;4.336;2022-09-02T16:44:24;29.10;79.10
14471;DHT22;7321;50.802;4.336;2022-09-02T16:46:51;28.90;76.80
14471;DHT22;7321;50.802;4.336;2022-09-02T16:49:19;28.80;76.70
14471;DHT22;7321;50.802;4.336;2022-09-02T16:51:47;28.90;77.90
14471;DHT22;7321;50.802;4.336;2022-09-02T16:54:15;28.90;78.10
14471;DHT22;7321;50.802;4.336;2022-09-02T16:56:41;28.90;78.50
14471;DHT22;7321;50.802;4.336;2022-09-02T16:59:09;28.90;78.90
14471;DHT22;7321;50.802;4.336;2022-09-02T17:01:36;28.80;78.70
14471;DHT22;7321;50.802;4.336;2022-09-02T17:04:03;28.70;78.10
14471;DHT22;7321;50.802;4.336;2022-09-02T17:06:29;28.70;78.70
14471;DHT22;7321;50.802;4.336;2022-09-02T17:08:55;28.70;79.10
14471;DHT22;7321;50.802;4.336;2022-09-02T17:11:27;28.70;79.60
14471;DHT22;7321;50.802;4.336;2022-09-02T17:13:58;28.70;80.20
14471;DHT22;7321;50.802;4.336;2022-09-02T17:16:27;28.70;80.50
14471;DHT22;7321;50.802;4.336;2022-09-02T17:18:53;28.60;79.90
14471;DHT22;7321;50.802;4.336;2022-09-02T17:23:51;28.50;81.00
14471;DHT22;7321;50.802;4.336;2022-09-02T17:26:18;28.40;80.30
14471;DHT22;7321;50.802;4.336;2022-09-02T17:28:44;28.40;79.70
14471;DHT22;7321;50.802;4.336;2022-09-02T17:31:18;28.20;80.70
14471;DHT22;7321;50.802;4.336;2022-09-02T17:33:45;28.10;82.20
14471;DHT22;7321;50.802;4.336;2022-09-02T17:36:12;28.20;82.90
14471;DHT22;7321;50.802;4.336;2022-09-02T17:38:39;28.20;83.20
14471;DHT22;7321;50.802;4.336;2022-09-02T17:41:05;28.20;84.00
14471;DHT22;7321;50.802;4.336;2022-09-02T17:43:50;28.20;84.30
14471;DHT22;7321;50.802;4.336;2022-09-02T17:46:16;28.20;84.60
14471;DHT22;7321;50.802;4.336;2022-09-02T17:48:42;28.10;84.90
14471;DHT22;7321;50.802;4.336;2022-09-02T17:51:08;28.10;85.30
14471;DHT22;7321;50.802;4.336;2022-09-02T17:53:33;28.10;85.20
14471;DHT22;7321;50.802;4.336;2022-09-02T18:05:23;28.00;88.00